Cordova, Alabama
Current Conditions -  °F | °C
As of 4:15 AM on Sunday 23 Nov 2014 (Local Time) from KJFX Reporting Station
Haze Haze  
Wind Chill: 55°   Ceiling: 900
Heat Index: 55°   Visibility: 5mi
Dew Point: 55°   Wind: 5mph
Humidity: 100%   Direction: 110°ESE
Pressure: 29.92"   Gusts: NA
Location:  33.76°N, 87.18°W
Report Text: KJFX 231015Z AUTO 11004KT 5SM BR OVC009 13/13 A2992 RMK A02 P-128
Loading
Personal Weather Stations






























Interactive Weather Map New forecast layout! Learn more

10-Day Weather Forecast

Advertisements
Track Severe Weather on mobile